Time;durP1;ratioP1;P1;durP2;ratioP2;P2;SDS_P1;SDS_P2;PMS_P1;PMS_P2;Temp;Humidity;BMP_temperature;BMP_pressure;BME280_temperature;BME280_humidity;BME280_pressure;Samples;Min_cycle;Max_cycle;Signal;HPM_P1;HPM_P2
2023/10/18 00:00:32;;;;;;;;;;;;;;;5.61;100.00;101278.53;5028954;28;20007;-76
2023/10/18 00:02:57;;;;;;;;;;;;;;;5.60;100.00;101275.09;5023326;28;19917;-76
2023/10/18 00:05:24;;;;;;;;;;;;;;;5.60;100.00;101277.69;5028540;28;19925;-76
2023/10/18 00:07:51;;;;;;;;;;;;;;;5.57;100.00;101275.09;5047130;28;19916;-76
2023/10/18 00:10:17;;;;;;;;;;;;;;;5.55;100.00;101276.78;5027009;28;19917;-76
2023/10/18 00:12:44;;;;;;;;;;;;;;;5.56;100.00;101275.09;5042531;28;20374;-76
2023/10/18 00:15:11;;;;;;;;;;;;;;;5.57;100.00;101266.47;5033361;28;19921;-76
2023/10/18 00:17:36;;;;;;;;;;;;;;;5.55;100.00;101263.00;5034382;28;19917;-76
2023/10/18 00:20:06;;;;;;;;;;;;;;;5.51;100.00;101271.63;5028427;28;19924;-76
2023/10/18 00:22:31;;;;;;;;;;;;;;;5.50;100.00;101270.75;5024593;28;19923;-76
2023/10/18 00:24:56;;;;;;;;;;;;;;;5.50;100.00;101268.16;5039328;28;19915;-76
2023/10/18 00:27:21;;;;;;;;;;;;;;;5.50;100.00;101256.97;5028123;28;20007;-76
2023/10/18 00:29:47;;;;;;;;;;;;;;;5.48;100.00;101258.66;5057347;28;19917;-76
2023/10/18 00:32:12;;;;;;;;;;;;;;;5.47;100.00;101259.53;5027973;28;19917;-76
2023/10/18 00:34:38;;;;;;;;;;;;;;;5.47;100.00;101259.53;5024767;28;19999;-76
2023/10/18 00:37:06;;;;;;;;;;;;;;;5.45;100.00;101263.81;5021332;28;19917;-76
2023/10/18 00:39:32;;;;;;;;;;;;;;;5.40;100.00;101264.69;5044567;28;19921;-76
2023/10/18 00:44:41;;;;;;;;;;;;;;;5.43;100.00;101260.34;5036142;28;20323;-76
2023/10/18 00:47:08;;;;;;;;;;;;;;;5.38;100.00;101253.44;5022551;28;19917;-76
2023/10/18 00:49:34;;;;;;;;;;;;;;;5.35;100.00;101261.19;5046156;28;19924;-76
2023/10/18 00:52:00;;;;;;;;;;;;;;;5.31;100.00;101251.69;5029003;28;19924;-76
2023/10/18 00:54:25;;;;;;;;;;;;;;;5.28;100.00;101248.25;5027994;28;20296;-76
2023/10/18 00:56:50;;;;;;;;;;;;;;;5.28;100.00;101249.09;5030656;28;19924;-76
2023/10/18 00:59:22;;;;;;;;;;;;;;;5.28;100.00;101233.59;5045344;28;20050;-76
2023/10/18 01:04:34;;;;;;;;;;;;;;;5.30;100.00;101223.28;5019330;28;19925;-76
2023/10/18 01:07:09;;;;;;;;;;;;;;;5.27;100.00;101224.13;5033668;28;19916;-75
2023/10/18 01:09:34;;;;;;;;;;;;;;;5.25;100.00;101218.06;5018899;28;19917;-75
2023/10/18 01:11:59;;;;;;;;;;;;;;;5.28;100.00;101212.91;5037079;28;20272;-75
2023/10/18 01:14:25;;;;;;;;;;;;;;;5.27;100.00;101207.75;5038198;28;20088;-75
2023/10/18 01:16:53;;;;;;;;;;;;;;;5.26;100.00;101200.81;5027571;28;19921;-75
2023/10/18 01:19:19;;;;;;;;;;;;;;;5.26;100.00;101203.41;5025962;28;19917;-76
2023/10/18 01:21:49;;;;;;;;;;;;;;;5.23;100.00;101195.63;5078175;28;19925;-75
2023/10/18 01:24:15;;;;;;;;;;;;;;;5.23;100.00;101200.81;5052281;28;19928;-75
2023/10/18 01:26:40;;;;;;;;;;;;;;;5.20;100.00;101203.38;5030770;28;19943;-76
2023/10/18 01:29:09;;;;;;;;;;;;;;;5.19;100.00;101197.34;5022642;28;19949;-75
2023/10/18 01:31:35;;;;;;;;;;;;;;;5.25;100.00;101188.78;5039933;28;19917;-76
2023/10/18 01:34:03;;;;;;;;;;;;;;;5.21;100.00;101189.63;5017146;28;19922;-76
2023/10/18 01:36:31;;;;;;;;;;;;;;;5.16;100.00;101182.69;5021676;28;19917;-76
2023/10/18 01:38:57;;;;;;;;;;;;;;;5.14;100.00;101184.41;5023646;28;19917;-75
2023/10/18 01:41:25;;;;;;;;;;;;;;;5.10;100.00;101182.69;5040802;28;19924;-75
2023/10/18 01:43:51;;;;;;;;;;;;;;;5.08;100.00;101173.19;5017521;28;19917;-76
2023/10/18 01:46:17;;;;;;;;;;;;;;;5.06;100.00;101177.47;5020236;28;19917;-76
2023/10/18 01:48:48;;;;;;;;;;;;;;;5.04;100.00;101161.13;5029790;28;19917;-75
2023/10/18 01:51:14;;;;;;;;;;;;;;;5.08;100.00;101168.03;5043885;28;19956;-75
2023/10/18 01:53:41;;;;;;;;;;;;;;;5.00;100.00;101164.53;5030799;28;19924;-75
2023/10/18 01:56:07;;;;;;;;;;;;;;;4.98;100.00;101161.94;5042122;28;19917;-75
2023/10/18 01:58:32;;;;;;;;;;;;;;;4.96;100.00;101149.88;5028949;28;19921;-76
2023/10/18 02:00:57;;;;;;;;;;;;;;;4.93;100.00;101138.66;5020437;28;19921;-76
2023/10/18 02:03:23;;;;;;;;;;;;;;;4.94;100.00;101134.38;5030350;28;20424;-75
2023/10/18 02:05:49;;;;;;;;;;;;;;;4.92;100.00;101136.94;5023416;28;19956;-76
2023/10/18 02:08:15;;;;;;;;;;;;;;;4.93;100.00;101143.81;5017688;28;20276;-76
2023/10/18 02:10:41;;;;;;;;;;;;;;;4.93;100.00;101142.97;5045503;28;19915;-75
2023/10/18 02:13:08;;;;;;;;;;;;;;;4.91;100.00;101132.66;5035105;28;20070;-76
2023/10/18 02:15:33;;;;;;;;;;;;;;;4.90;100.00;101124.88;5035834;28;19924;-76
2023/10/18 02:18:00;;;;;;;;;;;;;;;4.89;100.00;101131.75;5030368;28;19918;-75
2023/10/18 02:20:28;;;;;;;;;;;;;;;4.86;100.00;101126.56;5022047;28;19990;-75
2023/10/18 02:22:57;;;;;;;;;;;;;;;4.88;100.00;101126.59;5040790;28;20398;-75
2023/10/18 02:28:08;;;;;;;;;;;;;;;4.83;100.00;101131.72;5032284;28;19915;-76
2023/10/18 02:30:34;;;;;;;;;;;;;;;4.87;100.00;101128.31;5022342;28;19924;-76
2023/10/18 02:33:02;;;;;;;;;;;;;;;4.86;100.00;101130.88;5035443;28;19916;-76
2023/10/18 02:35:27;;;;;;;;;;;;;;;4.83;100.00;101123.13;5024200;28;20019;-76
2023/10/18 02:37:53;;;;;;;;;;;;;;;4.83;100.00;101131.72;5032761;28;20008;-76
2023/10/18 02:40:29;;;;;;;;;;;;;;;4.81;100.00;101119.69;5036054;28;20357;-76
2023/10/18 02:42:55;;;;;;;;;;;;;;;4.79;100.00;101116.22;5024642;28;19920;-76
2023/10/18 02:45:22;;;;;;;;;;;;;;;4.78;100.00;101117.94;5016434;28;19917;-76
2023/10/18 02:47:51;;;;;;;;;;;;;;;4.78;100.00;101105.03;5007713;28;19958;-76
2023/10/18 02:50:17;;;;;;;;;;;;;;;4.77;100.00;101100.69;5027960;28;19969;-76
2023/10/18 02:52:43;;;;;;;;;;;;;;;4.78;100.00;101104.16;5014289;28;19913;-76
2023/10/18 02:55:12;;;;;;;;;;;;;;;4.77;100.00;101108.44;5029347;28;19969;-76
2023/10/18 02:57:37;;;;;;;;;;;;;;;4.77;100.00;101100.69;5002412;28;19921;-76
2023/10/18 03:00:10;;;;;;;;;;;;;;;4.79;100.00;101104.16;5015014;28;20008;-76
2023/10/18 03:02:38;;;;;;;;;;;;;;;4.77;100.00;101089.50;5019352;28;20454;-76
2023/10/18 03:05:05;;;;;;;;;;;;;;;4.75;100.00;101083.50;5042558;28;20276;-76
2023/10/18 03:07:30;;;;;;;;;;;;;;;4.77;100.00;101084.34;5029463;28;19959;-76
2023/10/18 03:10:02;;;;;;;;;;;;;;;4.75;100.00;101086.94;5018120;28;19960;-76
2023/10/18 03:12:28;;;;;;;;;;;;;;;4.74;100.00;101080.06;5018395;28;19917;-76
2023/10/18 03:14:57;;;;;;;;;;;;;;;4.74;100.00;101081.75;5045992;28;19962;-76
2023/10/18 03:17:35;;;;;;;;;;;;;;;4.73;100.00;101083.47;5020974;28;19917;-76
2023/10/18 03:20:03;;;;;;;;;;;;;;;4.74;100.00;101074.00;5019834;28;19970;-76
2023/10/18 03:22:31;;;;;;;;;;;;;;;4.73;100.00;101067.97;5022923;28;19950;-76
2023/10/18 03:25:00;;;;;;;;;;;;;;;4.70;100.00;101066.22;5022904;28;20326;-76
2023/10/18 03:27:33;;;;;;;;;;;;;;;4.70;100.00;101067.97;5020586;28;19982;-76
2023/10/18 03:29:58;;;;;;;;;;;;;;;4.69;100.00;101067.09;5018477;28;19926;-76
2023/10/18 03:32:24;;;;;;;;;;;;;;;4.71;100.00;101067.13;5023660;28;19917;-76
2023/10/18 03:34:52;;;;;;;;;;;;;;;4.69;100.00;101061.94;5010946;28;19917;-76
2023/10/18 03:37:21;;;;;;;;;;;;;;;4.73;100.00;101061.94;5012100;28;19917;-76
2023/10/18 03:39:52;;;;;;;;;;;;;;;4.74;100.00;101046.47;5028232;28;19977;-76
2023/10/18 03:45:13;;;;;;;;;;;;;;;4.78;100.00;101027.53;5007277;28;19920;-76
2023/10/18 03:47:38;;;;;;;;;;;;;;;4.82;100.00;101031.84;5020465;28;19921;-76
2023/10/18 03:50:08;;;;;;;;;;;;;;;4.82;100.00;101021.53;5014504;28;20337;-76
2023/10/18 03:52:34;;;;;;;;;;;;;;;4.84;100.00;101026.66;5016636;28;19917;-76
2023/10/18 03:55:10;;;;;;;;;;;;;;;4.90;100.00;101017.25;5021072;28;19917;-76
2023/10/18 03:57:39;;;;;;;;;;;;;;;4.80;100.00;101002.56;5003956;28;19924;-76
2023/10/18 04:02:49;;;;;;;;;;;;;;;4.90;100.00;101006.91;5017101;28;19961;-76
2023/10/18 04:05:30;;;;;;;;;;;;;;;4.89;100.00;101007.75;5046588;28;19917;-75
2023/10/18 04:07:55;;;;;;;;;;;;;;;4.90;100.00;101001.75;5009602;28;19922;-76
2023/10/18 04:10:24;;;;;;;;;;;;;;;4.88;100.00;101006.03;5020601;28;19920;-76
2023/10/18 04:12:50;;;;;;;;;;;;;;;4.88;100.00;101000.88;5021870;28;19917;-76
2023/10/18 04:15:22;;;;;;;;;;;;;;;4.88;100.00;101003.44;5044306;28;19928;-76
2023/10/18 04:18:02;;;;;;;;;;;;;;;4.90;100.00;100996.59;5013508;28;19984;-76
2023/10/18 04:20:31;;;;;;;;;;;;;;;4.94;100.00;100989.69;5019991;28;19917;-76
2023/10/18 04:22:57;;;;;;;;;;;;;;;4.96;100.00;100976.78;5038508;28;19943;-76
2023/10/18 04:25:30;;;;;;;;;;;;;;;4.99;100.00;100982.81;5020536;28;20014;-76
2023/10/18 04:27:59;;;;;;;;;;;;;;;4.99;100.00;100981.94;5013146;28;20383;-77
2023/10/18 04:30:24;;;;;;;;;;;;;;;4.97;100.00;100969.03;5016342;28;19917;-76
2023/10/18 04:33:15;;;;;;;;;;;;;;;4.97;100.00;100979.38;5033407;28;20391;-76
2023/10/18 04:35:45;;;;;;;;;;;;;;;4.96;100.00;100966.44;5031944;28;19917;-76
2023/10/18 04:38:29;;;;;;;;;;;;;;;4.95;100.00;100965.56;5052981;28;19921;-76
2023/10/18 04:41:37;;;;;;;;;;;;;;;4.97;100.00;100962.97;5054561;28;19915;-76
2023/10/18 04:43:43;;;;;;;;;;;;;;;5.02;100.00;100966.44;5038870;28;19970;-76
2023/10/18 04:46:14;;;;;;;;;;;;;;;4.95;100.00;100968.16;5058012;28;19921;-75
2023/10/18 04:54:01;;;;;;;;;;;;;;;4.96;100.00;100951.78;5019143;28;19924;-76
2023/10/18 04:56:37;;;;;;;;;;;;;;;4.96;100.00;100948.34;5037958;28;20004;-76
2023/10/18 04:59:10;;;;;;;;;;;;;;;4.99;100.00;100950.94;5013397;28;19932;-75
2023/10/18 05:04:20;;;;;;;;;;;;;;;4.99;100.00;100935.44;5011164;28;19939;-76
2023/10/18 05:06:55;;;;;;;;;;;;;;;4.96;100.00;100932.84;5023691;28;19973;-76
2023/10/18 05:09:30;;;;;;;;;;;;;;;4.96;100.00;100931.13;5012614;28;19917;-75
2023/10/18 05:12:16;;;;;;;;;;;;;;;4.97;100.00;100938.03;5044760;28;19921;-76
2023/10/18 05:14:42;;;;;;;;;;;;;;;5.00;100.00;100925.09;5019351;28;20011;-76
2023/10/18 05:17:11;;;;;;;;;;;;;;;5.01;100.00;100919.06;5009328;28;20009;-76
2023/10/18 05:19:42;;;;;;;;;;;;;;;5.05;100.00;100913.03;5040019;28;19919;-75
2023/10/18 05:22:35;;;;;;;;;;;;;;;5.05;100.00;100914.78;5019510;28;19917;-76
2023/10/18 05:27:39;;;;;;;;;;;;;;;5.03;100.00;100914.75;5016095;28;19924;-76
2023/10/18 05:30:14;;;;;;;;;;;;;;;5.03;100.00;100919.91;5039884;28;19917;-76
2023/10/18 05:32:49;;;;;;;;;;;;;;;5.05;100.00;100912.19;5025936;28;19924;-76
2023/10/18 05:35:26;;;;;;;;;;;;;;;5.03;100.00;100907.00;5040087;28;20250;-76
2023/10/18 05:38:48;;;;;;;;;;;;;;;5.04;100.00;100908.75;5009374;28;19974;-75
2023/10/18 05:43:03;;;;;;;;;;;;;;;5.01;100.00;100903.56;5028412;28;19944;-75
2023/10/18 05:45:32;;;;;;;;;;;;;;;5.02;100.00;100909.59;5041739;28;19917;-76
2023/10/18 05:48:12;;;;;;;;;;;;;;;5.04;100.00;100903.59;5007389;28;19977;-76
2023/10/18 05:50:37;;;;;;;;;;;;;;;5.02;100.00;100904.44;5040523;28;19921;-75
2023/10/18 05:53:11;;;;;;;;;;;;;;;5.01;100.00;100903.56;5040593;28;19923;-75
2023/10/18 05:55:38;;;;;;;;;;;;;;;5.00;100.00;100901.84;5020865;28;19936;-75
2023/10/18 05:58:06;;;;;;;;;;;;;;;4.99;100.00;100894.09;5025903;28;20046;-76
2023/10/18 06:00:35;;;;;;;;;;;;;;;4.95;100.00;100894.97;5004629;28;19922;-76
2023/10/18 06:03:00;;;;;;;;;;;;;;;4.94;100.00;100891.53;5011938;28;19918;-76
2023/10/18 06:05:33;;;;;;;;;;;;;;;4.91;100.00;100894.97;5004534;28;19924;-75
2023/10/18 06:07:59;;;;;;;;;;;;;;;4.90;100.00;100890.66;5027316;28;20068;-76
2023/10/18 06:10:25;;;;;;;;;;;;;;;4.91;100.00;100889.78;5037302;28;19943;-76
2023/10/18 06:12:58;;;;;;;;;;;;;;;4.89;100.00;100886.34;5013953;28;19952;-76
2023/10/18 06:15:38;;;;;;;;;;;;;;;4.91;100.00;100879.47;5019992;28;19922;-76
2023/10/18 06:18:05;;;;;;;;;;;;;;;4.89;100.00;100873.41;5015000;28;19917;-76
2023/10/18 06:20:34;;;;;;;;;;;;;;;4.93;100.00;100864.78;5007823;28;19917;-76
2023/10/18 06:23:08;;;;;;;;;;;;;;;4.92;100.00;100867.41;5015254;28;20008;-76
2023/10/18 06:25:35;;;;;;;;;;;;;;;4.91;100.00;100863.97;5018741;28;20011;-75
2023/10/18 06:28:00;;;;;;;;;;;;;;;4.93;100.00;100859.63;5021952;28;20283;-76
2023/10/18 06:30:26;;;;;;;;;;;;;;;4.96;100.00;100852.75;5018195;28;20007;-76
2023/10/18 06:32:51;;;;;;;;;;;;;;;4.99;100.00;100858.78;5014112;28;19924;-75
2023/10/18 06:35:26;;;;;;;;;;;;;;;4.99;100.00;100858.78;5030615;28;19924;-75
2023/10/18 06:37:51;;;;;;;;;;;;;;;4.99;100.00;100855.34;5007628;28;19948;-76
2023/10/18 06:40:32;;;;;;;;;;;;;;;5.01;100.00;100840.72;5034011;28;19945;-75
2023/10/18 06:43:00;;;;;;;;;;;;;;;5.01;100.00;100845.88;5005848;28;19921;-75
2023/10/18 06:45:25;;;;;;;;;;;;;;;5.02;100.00;100848.44;5014953;28;20062;-75
2023/10/18 06:47:54;;;;;;;;;;;;;;;5.05;100.00;100851.03;5014491;28;19988;-75
2023/10/18 06:50:26;;;;;;;;;;;;;;;5.11;100.00;100842.41;5012931;28;19970;-75
2023/10/18 06:52:52;;;;;;;;;;;;;;;5.16;100.00;100831.19;5015955;28;20453;-75
2023/10/18 06:55:18;;;;;;;;;;;;;;;5.20;100.00;100831.19;5017817;28;19918;-75
2023/10/18 06:57:43;;;;;;;;;;;;;;;5.24;100.00;100827.75;5010264;28;19921;-75
2023/10/18 07:00:12;;;;;;;;;;;;;;;5.28;100.00;100825.16;5016963;28;19921;-75
2023/10/18 07:02:38;;;;;;;;;;;;;;;5.29;100.00;100824.28;5012970;28;19925;-75
2023/10/18 07:05:04;;;;;;;;;;;;;;;5.33;100.00;100820.84;5030584;28;19917;-75
2023/10/18 07:07:29;;;;;;;;;;;;;;;5.39;100.00;100822.53;5025132;28;19917;-75
2023/10/18 07:09:56;;;;;;;;;;;;;;;5.37;100.00;100813.94;5025922;28;19932;-75
2023/10/18 07:12:27;;;;;;;;;;;;;;;5.45;100.00;100825.09;5008867;28;19917;-75
2023/10/18 07:14:56;;;;;;;;;;;;;;;5.47;100.00;100827.69;5016018;28;19971;-75
2023/10/18 07:17:24;;;;;;;;;;;;;;;5.51;100.00;100806.13;5008324;28;20048;-75
2023/10/18 07:19:49;;;;;;;;;;;;;;;5.55;100.00;100797.50;5020424;28;19940;-75
2023/10/18 07:22:18;;;;;;;;;;;;;;;5.58;100.00;100797.47;5010247;28;20353;-75
2023/10/18 07:24:59;;;;;;;;;;;;;;;5.67;100.00;100794.00;5027889;28;19924;-75
2023/10/18 07:27:29;;;;;;;;;;;;;;;5.68;100.00;100791.41;5063790;28;19998;-76
2023/10/18 07:29:55;;;;;;;;;;;;;;;5.76;100.00;100792.25;5041896;28;19924;-76
2023/10/18 07:32:23;;;;;;;;;;;;;;;5.80;100.00;100803.44;5012314;28;20268;-76
2023/10/18 07:34:49;;;;;;;;;;;;;;;5.85;100.00;100789.63;5021205;28;19927;-75
2023/10/18 07:37:17;;;;;;;;;;;;;;;5.92;100.00;100787.88;5015004;28;19917;-75
2023/10/18 07:39:49;;;;;;;;;;;;;;;5.97;100.00;100786.13;5036547;28;19920;-75
2023/10/18 07:42:18;;;;;;;;;;;;;;;6.05;100.00;100775.75;5024346;28;19940;-75
2023/10/18 07:44:46;;;;;;;;;;;;;;;6.13;100.00;100775.69;5034885;28;20376;-75
2023/10/18 07:47:17;;;;;;;;;;;;;;;6.20;100.00;100774.78;5029189;28;20367;-75
2023/10/18 07:49:45;;;;;;;;;;;;;;;6.26;100.00;100770.41;5049686;28;19941;-74
2023/10/18 07:52:10;;;;;;;;;;;;;;;6.31;100.00;100773.84;5024444;28;19928;-75
2023/10/18 07:54:35;;;;;;;;;;;;;;;6.40;100.00;100767.72;5039149;28;19925;-74
2023/10/18 07:57:01;;;;;;;;;;;;;;;6.46;100.00;100764.25;5024321;28;19918;-74
2023/10/18 07:59:29;;;;;;;;;;;;;;;6.56;100.00;100748.59;5042359;28;20309;-74
2023/10/18 08:02:23;;;;;;;;;;;;;;;6.67;100.00;100751.13;5026050;28;19924;-74
2023/10/18 08:04:48;;;;;;;;;;;;;;;6.81;100.00;100753.56;5015145;28;19917;-74
2023/10/18 08:07:20;;;;;;;;;;;;;;;7.00;100.00;100751.69;5011626;28;20012;-74
2023/10/18 08:09:48;;;;;;;;;;;;;;;7.04;100.00;100750.75;5014258;28;19936;-74
2023/10/18 08:12:29;;;;;;;;;;;;;;;7.20;100.00;100749.72;5028290;28;20383;-74
2023/10/18 08:14:54;;;;;;;;;;;;;;;7.16;100.00;100742.84;5043274;28;19932;-74
2023/10/18 08:22:47;;;;;;;;;;;;;;;7.24;100.00;100738.44;5073943;28;20389;-74
2023/10/18 08:25:22;;;;;;;;;;;;;;;7.17;100.00;100731.59;5037765;28;19947;-74
2023/10/18 08:27:53;;;;;;;;;;;;;;;7.21;100.00;100730.69;5023258;28;19921;-74
2023/10/18 08:30:38;;;;;;;;;;;;;;;7.21;100.00;100720.31;5035604;28;20012;-74
2023/10/18 08:33:05;;;;;;;;;;;;;;;7.25;100.00;100722.00;5011489;28;19917;-74
2023/10/18 08:35:30;;;;;;;;;;;;;;;7.26;100.00;100713.34;5037472;28;19941;-74
2023/10/18 08:38:01;;;;;;;;;;;;;;;7.28;100.00;100711.59;5015283;28;20364;-74
2023/10/18 08:43:08;;;;;;;;;;;;;;;7.35;100.00;100709.78;5011569;28;20308;-74
2023/10/18 08:45:36;;;;;;;;;;;;;;;7.39;100.00;100713.19;5038811;28;20427;-74
2023/10/18 08:48:10;;;;;;;;;;;;;;;7.45;100.00;100711.38;5030171;28;19939;-74
2023/10/18 08:50:38;;;;;;;;;;;;;;;7.47;100.00;100714.81;5021475;28;19924;-74
2023/10/18 08:53:03;;;;;;;;;;;;;;;7.54;100.00;100713.00;5031061;28;19917;-74
2023/10/18 08:55:44;;;;;;;;;;;;;;;7.65;100.00;100692.97;5021871;28;20020;-74
2023/10/18 08:58:11;;;;;;;;;;;;;;;7.76;100.00;100695.41;5012457;28;19921;-74
2023/10/18 09:03:03;;;;;;;;;;;;;;;8.07;100.00;100690.59;5044561;28;19918;-74
2023/10/18 09:05:28;;;;;;;;;;;;;;;8.17;100.00;100691.31;5032332;28;19920;-74
2023/10/18 09:07:54;;;;;;;;;;;;;;;8.27;100.00;100681.63;5045194;28;19917;-74
2023/10/18 09:18:25;;;;;;;;;;;;;;;8.61;100.00;100667.22;5013450;28;19924;-74
2023/10/18 09:20:51;;;;;;;;;;;;;;;8.72;100.00;100653.19;5018119;28;20016;-75
2023/10/18 09:23:20;;;;;;;;;;;;;;;8.82;100.00;100646.91;5018720;28;20020;-74
2023/10/18 09:25:49;;;;;;;;;;;;;;;8.92;100.00;100645.84;5038837;28;19917;-74
2023/10/18 09:28:19;;;;;;;;;;;;;;;8.96;100.00;100644.91;5018641;28;19965;-74
2023/10/18 09:30:44;;;;;;;;;;;;;;;9.03;100.00;100640.44;5037727;28;19917;-74
2023/10/18 09:33:13;;;;;;;;;;;;;;;9.16;100.00;100636.72;5017910;28;19928;-74
2023/10/18 09:35:38;;;;;;;;;;;;;;;9.18;100.00;100634.06;5041926;28;19949;-74
2023/10/18 09:38:04;;;;;;;;;;;;;;;9.21;100.00;100636.59;5027916;28;19997;-74
2023/10/18 09:40:29;;;;;;;;;;;;;;;9.27;100.00;100633.88;5040631;28;19917;-75
2023/10/18 09:42:54;;;;;;;;;;;;;;;9.33;100.00;100621.59;5017008;28;19924;-74
2023/10/18 09:45:20;;;;;;;;;;;;;;;9.38;100.00;100611.94;5043551;28;19990;-74
2023/10/18 09:47:46;;;;;;;;;;;;;;;9.47;100.00;100604.81;5029166;28;19921;-74
2023/10/18 09:50:23;;;;;;;;;;;;;;;9.55;100.00;100598.56;5017081;28;19917;-74
2023/10/18 09:52:56;;;;;;;;;;;;;;;9.67;100.00;100596.53;5029235;28;19913;-74
2023/10/18 09:55:23;;;;;;;;;;;;;;;9.74;100.00;100585.94;5047156;28;19922;-74
2023/10/18 09:57:59;;;;;;;;;;;;;;;9.83;100.00;100584.88;5021855;28;19913;-74
2023/10/18 10:00:27;;;;;;;;;;;;;;;9.85;100.00;100589.16;5047433;28;20006;-74
2023/10/18 10:02:52;;;;;;;;;;;;;;;9.93;100.00;100578.53;5029600;28;20297;-75
2023/10/18 10:05:25;;;;;;;;;;;;;;;9.90;100.00;100575.16;5012838;28;20003;-75
2023/10/18 10:07:54;;;;;;;;;;;;;;;9.92;100.00;100566.41;5004787;28;19972;-75
2023/10/18 10:10:24;;;;;;;;;;;;;;;9.99;100.00;100567.97;5036485;28;20344;-75
2023/10/18 10:12:49;;;;;;;;;;;;;;;10.05;100.00;100562.59;5032011;28;20281;-75
2023/10/18 10:15:17;;;;;;;;;;;;;;;10.12;100.00;100552.88;5027382;28;19980;-74
2023/10/18 10:17:47;;;;;;;;;;;;;;;10.19;100.00;100544.00;5006299;28;19924;-75
2023/10/18 10:20:15;;;;;;;;;;;;;;;10.24;100.00;100544.75;5011162;28;19917;-75
2023/10/18 10:22:42;;;;;;;;;;;;;;;10.30;100.00;100536.81;5010408;28;19926;-75
2023/10/18 10:25:12;;;;;;;;;;;;;;;10.38;100.00;100541.78;5019442;28;19918;-74
2023/10/18 10:32:45;;;;;;;;;;;;;;;10.59;100.00;100522.09;5010547;28;19924;-75
2023/10/18 10:35:27;;;;;;;;;;;;;;;10.67;100.00;100517.53;5040461;28;19922;-75
2023/10/18 10:38:14;;;;;;;;;;;;;;;10.69;100.00;100515.72;5005709;28;20361;-75
2023/10/18 10:40:43;;;;;;;;;;;;;;;10.76;100.00;100503.38;5016554;28;19959;-75
2023/10/18 10:43:12;;;;;;;;;;;;;;;10.81;100.00;100501.47;5011541;28;20376;-75
2023/10/18 10:45:43;;;;;;;;;;;;;;;10.86;100.00;100504.81;5015153;28;19942;-74
2023/10/18 10:51:11;;;;;;;;;;;;;;;11.02;100.00;100493.00;5012605;28;19924;-75
2023/10/18 10:53:48;;;;;;;;;;;;;;;11.14;100.00;100481.31;5012175;28;19917;-75
2023/10/18 10:56:27;;;;;;;;;;;;;;;11.24;100.00;100474.03;5045831;28;19975;-75
2023/10/18 11:01:57;;;;;;;;;;;;;;;11.51;100.00;100463.59;5021896;28;19927;-75
2023/10/18 11:04:25;;;;;;;;;;;;;;;11.62;100.00;100445.84;5011781;28;19963;-75
2023/10/18 11:06:56;;;;;;;;;;;;;;;11.75;100.00;100444.53;5025357;28;20356;-75
2023/10/18 11:09:27;;;;;;;;;;;;;;;11.90;100.00;100444.03;5007631;28;19987;-75
2023/10/18 11:11:56;;;;;;;;;;;;;;;12.08;100.00;100436.44;5023404;28;19917;-75
2023/10/18 11:14:27;;;;;;;;;;;;;;;12.21;100.00;100436.84;5012533;28;19917;-75
2023/10/18 11:16:56;;;;;;;;;;;;;;;12.27;100.00;100434.00;5038017;28;19917;-75
2023/10/18 11:19:28;;;;;;;;;;;;;;;12.33;100.00;100433.78;5033391;28;19923;-75
2023/10/18 11:21:54;;;;;;;;;;;;;;;12.39;100.00;100421.34;5006886;28;19918;-75
2023/10/18 11:24:21;;;;;;;;;;;;;;;12.39;100.00;100413.50;5054966;28;20292;-75
2023/10/18 11:26:46;;;;;;;;;;;;;;;12.41;100.00;100409.03;5016994;28;20369;-75
2023/10/18 11:29:12;;;;;;;;;;;;;;;12.50;100.00;100402.63;5026041;28;19917;-75
2023/10/18 11:31:38;;;;;;;;;;;;;;;12.46;100.00;100400.16;5031423;28;20362;-75
2023/10/18 11:34:06;;;;;;;;;;;;;;;12.54;100.00;100398.13;5011347;28;19921;-75
2023/10/18 11:36:33;;;;;;;;;;;;;;;12.54;100.00;100398.13;5009594;28;19917;-76
2023/10/18 11:39:16;;;;;;;;;;;;;;;12.55;100.00;100392.81;5017206;28;19924;-75
2023/10/18 11:41:41;;;;;;;;;;;;;;;12.59;100.00;100375.28;5032952;28;19967;-75
2023/10/18 11:44:08;;;;;;;;;;;;;;;12.70;100.00;100374.84;5018771;28;19964;-75
2023/10/18 11:46:46;;;;;;;;;;;;;;;12.84;100.00;100367.28;5018264;28;20322;-75
2023/10/18 11:49:12;;;;;;;;;;;;;;;13.08;100.00;100353.22;5047416;28;19930;-75
2023/10/18 11:51:44;;;;;;;;;;;;;;;13.28;100.00;100360.25;5026673;28;19913;-75
2023/10/18 11:54:12;;;;;;;;;;;;;;;13.43;100.00;100342.19;5042628;28;19998;-76
2023/10/18 11:56:38;;;;;;;;;;;;;;;13.46;100.00;100344.66;5005961;28;19923;-75
2023/10/18 11:59:03;;;;;;;;;;;;;;;13.60;100.00;100331.81;5011240;28;19928;-75
2023/10/18 12:01:33;;;;;;;;;;;;;;;13.64;100.00;100336.03;5012405;28;20369;-76
2023/10/18 12:03:59;;;;;;;;;;;;;;;13.70;100.00;100345.34;5024214;28;19925;-75
2023/10/18 12:06:25;;;;;;;;;;;;;;;13.77;100.00;100331.09;5017548;28;20330;-75
2023/10/18 12:11:34;;;;;;;;;;;;;;;13.89;100.00;100317.41;5043392;28;19962;-76
2023/10/18 12:14:00;;;;;;;;;;;;;;;13.90;100.00;100305.19;5025765;28;19956;-75
2023/10/18 12:16:25;;;;;;;;;;;;;;;13.89;100.00;100298.22;5024891;28;19929;-75
2023/10/18 12:18:52;;;;;;;;;;;;;;;13.89;100.00;100293.84;5018799;28;20372;-75
2023/10/18 12:21:20;;;;;;;;;;;;;;;13.99;100.00;100282.00;5046259;28;19920;-75
2023/10/18 12:23:46;;;;;;;;;;;;;;;14.13;100.00;100281.38;5025825;28;20340;-75
2023/10/18 12:26:11;;;;;;;;;;;;;;;14.18;100.00;100276.75;5047970;28;19923;-76
2023/10/18 12:28:37;;;;;;;;;;;;;;;14.21;100.00;100279.22;5025100;28;20008;-76
2023/10/18 12:31:09;;;;;;;;;;;;;;;14.14;100.00;100280.44;5045618;28;19921;-76
2023/10/18 12:33:35;;;;;;;;;;;;;;;14.15;100.00;100270.81;5029628;28;19993;-75
2023/10/18 12:36:00;;;;;;;;;;;;;;;14.29;100.00;100260.53;5044564;28;20364;-76
2023/10/18 12:38:36;;;;;;;;;;;;;;;14.32;100.00;100244.63;5029505;28;19966;-76
2023/10/18 12:41:06;;;;;;;;;;;;;;;14.23;100.00;100243.31;5043653;28;19920;-78
2023/10/18 12:43:44;;;;;;;;;;;;;;;14.19;100.00;100235.66;5016752;28;19918;-76
2023/10/18 12:46:11;;;;;;;;;;;;;;;14.07;100.00;100229.25;5022893;28;20273;-75
2023/10/18 12:48:36;;;;;;;;;;;;;;;13.98;100.00;100224.44;5031062;28;19964;-75
2023/10/18 12:51:07;;;;;;;;;;;;;;;13.99;100.00;100207.78;5047306;28;19944;-75
2023/10/18 12:53:46;;;;;;;;;;;;;;;13.91;100.00;100212.53;5032586;28;19966;-76
2023/10/18 12:56:31;;;;;;;;;;;;;;;13.90;100.00;100203.84;5014639;28;19928;-76
2023/10/18 13:04:08;;;;;;;;;;;;;;;13.89;100.00;100189.03;5027504;28;20409;-76
2023/10/18 13:06:43;;;;;;;;;;;;;;;13.75;100.00;100187.06;5049178;28;19917;-76
2023/10/18 13:14:06;;;;;;;;;;;;;;;13.40;100.00;100153.81;5023141;28;19921;-75
2023/10/18 13:16:32;;;;;;;;;;;;;;;13.41;100.00;100150.28;5041888;28;19917;-75
2023/10/18 13:18:57;;;;;;;;;;;;;;;13.50;100.00;100141.97;5040605;28;19957;-75
2023/10/18 13:21:27;;;;;;;;;;;;;;;13.56;100.00;100133.84;5031478;28;19925;-75
2023/10/18 13:23:56;;;;;;;;;;;;;;;13.55;100.00;100130.38;5045847;28;19922;-75
2023/10/18 13:26:26;;;;;;;;;;;;;;;13.52;100.00;100132.28;5030684;28;19925;-75
2023/10/18 13:28:52;;;;;;;;;;;;;;;13.51;100.00;100117.50;5048175;28;19915;-75
2023/10/18 13:31:24;;;;;;;;;;;;;;;13.45;100.00;100126.50;5029130;28;19978;-76
2023/10/18 13:33:52;;;;;;;;;;;;;;;13.43;100.00;100122.25;5050687;28;19911;-76
2023/10/18 13:36:21;;;;;;;;;;;;;;;13.44;100.00;100105.59;5030795;28;19917;-75
2023/10/18 13:38:47;;;;;;;;;;;;;;;13.49;100.00;100095.78;5031699;28;19923;-75
2023/10/18 13:41:12;;;;;;;;;;;;;;;13.55;100.00;100093.72;5036263;27;19962;-75
2023/10/18 13:43:37;;;;;;;;;;;;;;;13.64;100.00;100081.97;5035866;28;20369;-75
2023/10/18 13:46:03;;;;;;;;;;;;;;;13.72;100.00;100081.56;5046950;28;19925;-75
2023/10/18 13:48:28;;;;;;;;;;;;;;;13.71;100.00;100091.22;5020219;28;19917;-75
2023/10/18 13:50:58;;;;;;;;;;;;;;;13.75;100.00;100074.41;5036518;28;19927;-75